Aviation Digital Data Service (ADDS)

Output produced by METARs form (2329 UTC 15 February 2019)
found at http://www.aviationweather.gov/metar/data/
 
METAR text: PAFA 152253Z 10003KT 10SM CLR M21/M24 A3019 RMK AO2 SLP241 T12061244 PNO
Conditions at: PAFA (FAIRBANKS , AK, US) observed 2253 UTC 15 February 2019
Temperature: -20.6°C (-5°F)
Dewpoint: -24.4°C (-12°F) [RH = 72%]
Pressure (altimeter): 30.19 inches Hg (1022.4 mb)
[Sea-level pressure: 1024.1 mb]
Winds: from the E (100 degrees) at 3 MPH (3 knots; 1.5 m/s)
Visibility: 10 or more miles (16+ km)
Ceiling: at least 12,000 feet AGL
Clouds: sky clear below 12,000 feet AGL
Weather: no significant weather observed at this time

METAR text: PAFA 152153Z 00000KT 10SM CLR M22/M24 A3022 RMK AO2 SLP249 T12221239 PNO
Conditions at: PAFA (FAIRBANKS , AK, US) observed 2153 UTC 15 February 2019
Temperature: -22.2°C (-8°F)
Dewpoint: -23.9°C (-11°F) [RH = 86%]
Pressure (altimeter): 30.22 inches Hg (1023.5 mb)
[Sea-level pressure: 1024.9 mb]
Winds: calm
Visibility: 10 or more miles (16+ km)
Ceiling: at least 12,000 feet AGL
Clouds: sky clear below 12,000 feet AGL
Weather: no significant weather observed at this time

METAR text: PAFA 152053Z 00000KT 10SM CLR M23/M26 A3023 RMK AO2 SLP255 T12331261 51001 PNO
Conditions at: PAFA (FAIRBANKS , AK, US) observed 2053 UTC 15 February 2019
Temperature: -23.3°C (-10°F)
Dewpoint: -26.1°C (-15°F) [RH = 78%]
Pressure (altimeter): 30.23 inches Hg (1023.8 mb)
[Sea-level pressure: 1025.5 mb]
Winds: calm
Visibility: 10 or more miles (16+ km)
Ceiling: at least 12,000 feet AGL
Clouds: sky clear below 12,000 feet AGL
Weather: no significant weather observed at this time

METAR text: PAFA 151953Z 00000KT 10SM VCFG CLR M25/M27 A3023 RMK AO2 SLP254 VCFG NE T12501272 PNO
Conditions at: PAFA (FAIRBANKS , AK, US) observed 1953 UTC 15 February 2019
Temperature: -25.0°C (-13°F)
Dewpoint: -27.2°C (-17°F) [RH = 82%]
Pressure (altimeter): 30.23 inches Hg (1023.8 mb)
[Sea-level pressure: 1025.4 mb]
Winds: calm
Visibility: 10 or more miles (16+ km)
Ceiling: at least 12,000 feet AGL
Clouds: sky clear below 12,000 feet AGL
Weather: VCFG  (fog in vicinity)

METAR text: PAFA 151853Z 03003KT 10SM VCFG FEW008 M29/M31 A3023 RMK AO2 SLP257 VCFG N-NE T12941311 PNO
Conditions at: PAFA (FAIRBANKS , AK, US) observed 1853 UTC 15 February 2019
Temperature: -29.4°C (-21°F)
Dewpoint: -31.1°C (-24°F) [RH = 85%]
Pressure (altimeter): 30.23 inches Hg (1023.8 mb)
[Sea-level pressure: 1025.7 mb]
Winds: from the NNE (30 degrees) at 3 MPH (3 knots; 1.5 m/s)
Visibility: 10 or more miles (16+ km)
Ceiling: at least 12,000 feet AGL
Clouds: few clouds at 800 feet AGL
Weather: VCFG  (fog in vicinity)

METAR text: PAFA 151753Z 00000KT 6SM BR FEW008 M30/M33 A3023 RMK AO2 SLP256 VIS HYR W-N T13001328 11200 21311 51014 PNO
Conditions at: PAFA (FAIRBANKS , AK, US) observed 1753 UTC 15 February 2019
Temperature: -30.0°C (-22°F)
Dewpoint: -32.8°C (-27°F) [RH = 77%]
Pressure (altimeter): 30.23 inches Hg (1023.8 mb)
[Sea-level pressure: 1025.6 mb]
Winds: calm
Visibility: 6 miles (10 km)
Ceiling: at least 12,000 feet AGL
Clouds: few clouds at 800 feet AGL
Weather: BR  (mist)

METAR text: PAFA 151728Z 06003KT 10SM VCFG FEW008 M29/M32 A3022 RMK AO2 VCFG NW-N T12891317 PNO
Conditions at: PAFA (FAIRBANKS , AK, US) observed 1728 UTC 15 February 2019
Temperature: -28.9°C (-20°F)
Dewpoint: -31.7°C (-25°F) [RH = 77%]
Pressure (altimeter): 30.22 inches Hg (1023.5 mb)
Winds: from the ENE (60 degrees) at 3 MPH (3 knots; 1.5 m/s)
Visibility: 10 or more miles (16+ km)
Ceiling: at least 12,000 feet AGL
Clouds: few clouds at 800 feet AGL
Weather: VCFG  (fog in vicinity)

METAR text: PAFA 151653Z 00000KT 10SM CLR M30/M33 A3022 RMK AO2 SLP252 T13001328 PNO
Conditions at: PAFA (FAIRBANKS , AK, US) observed 1653 UTC 15 February 2019
Temperature: -30.0°C (-22°F)
Dewpoint: -32.8°C (-27°F) [RH = 77%]
Pressure (altimeter): 30.22 inches Hg (1023.5 mb)
[Sea-level pressure: 1025.2 mb]
Winds: calm
Visibility: 10 or more miles (16+ km)
Ceiling: at least 12,000 feet AGL
Clouds: sky clear below 12,000 feet AGL
Weather: no significant weather observed at this time

METAR text: PAFA 151553Z 00000KT 10SM CLR M30/M33 A3021 RMK AO2 SLP248 T13001328 PNO
Conditions at: PAFA (FAIRBANKS , AK, US) observed 1553 UTC 15 February 2019
Temperature: -30.0°C (-22°F)
Dewpoint: -32.8°C (-27°F) [RH = 77%]
Pressure (altimeter): 30.21 inches Hg (1023.1 mb)
[Sea-level pressure: 1024.8 mb]
Winds: calm
Visibility: 10 or more miles (16+ km)
Ceiling: at least 12,000 feet AGL
Clouds: sky clear below 12,000 feet AGL
Weather: no significant weather observed at this time

METAR text: PAFA 151453Z COR 00000KT 10SM CLR M29/M31 A3019 RMK AO2 SLP241 T12891311 53020 PNO
Conditions at: PAFA (FAIRBANKS , AK, US) observed 1453 UTC 15 February 2019
Temperature: -28.9°C (-20°F)
Dewpoint: -31.1°C (-24°F) [RH = 81%]
Pressure (altimeter): 30.19 inches Hg (1022.4 mb)
[Sea-level pressure: 1024.1 mb]
Winds: calm
Visibility: 10 or more miles (16+ km)
Ceiling: at least 12,000 feet AGL
Clouds: sky clear below 12,000 feet AGL
Weather: no significant weather observed at this time

METAR text: PAFA 151353Z 00000KT 10SM CLR M28/M30 A3016 RMK AO2 SLP230 T12781300 PNO
Conditions at: PAFA (FAIRBANKS , AK, US) observed 1353 UTC 15 February 2019
Temperature: -27.8°C (-18°F)
Dewpoint: -30.0°C (-22°F) [RH = 81%]
Pressure (altimeter): 30.16 inches Hg (1021.4 mb)
[Sea-level pressure: 1023.0 mb]
Winds: calm
Visibility: 10 or more miles (16+ km)
Ceiling: at least 12,000 feet AGL
Clouds: sky clear below 12,000 feet AGL
Weather: no significant weather observed at this time

METAR text: PAFA 151253Z 00000KT 10SM CLR M24/M27 A3014 RMK AO2 SLP224 T12391272 PNO
Conditions at: PAFA (FAIRBANKS , AK, US) observed 1253 UTC 15 February 2019
Temperature: -23.9°C (-11°F)
Dewpoint: -27.2°C (-17°F) [RH = 74%]
Pressure (altimeter): 30.14 inches Hg (1020.7 mb)
[Sea-level pressure: 1022.4 mb]
Winds: calm
Visibility: 10 or more miles (16+ km)
Ceiling: at least 12,000 feet AGL
Clouds: sky clear below 12,000 feet AGL
Weather: no significant weather observed at this time

METAR text: PAFA 151153Z 06008KT 10SM CLR M20/M24 A3012 RMK AO2 SLP216 T12001239 11194 21256 53014 PNO
Conditions at: PAFA (FAIRBANKS , AK, US) observed 1153 UTC 15 February 2019
Temperature: -20.0°C (-4°F)
Dewpoint: -23.9°C (-11°F) [RH = 71%]
Pressure (altimeter): 30.12 inches Hg (1020.1 mb)
[Sea-level pressure: 1021.6 mb]
Winds: from the ENE (60 degrees) at 9 MPH (8 knots; 4.1 m/s)
Visibility: 10 or more miles (16+ km)
Ceiling: at least 12,000 feet AGL
Clouds: sky clear below 12,000 feet AGL
Weather: no significant weather observed at this time

METAR text: PAFA 151053Z 03007KT 10SM CLR M21/M24 A3011 RMK AO2 SLP211 T12061239 PNO
Conditions at: PAFA (FAIRBANKS , AK, US) observed 1053 UTC 15 February 2019
Temperature: -20.6°C (-5°F)
Dewpoint: -23.9°C (-11°F) [RH = 75%]
Pressure (altimeter): 30.11 inches Hg (1019.7 mb)
[Sea-level pressure: 1021.1 mb]
Winds: from the NNE (30 degrees) at 8 MPH (7 knots; 3.6 m/s)
Visibility: 10 or more miles (16+ km)
Ceiling: at least 12,000 feet AGL
Clouds: sky clear below 12,000 feet AGL
Weather: no significant weather observed at this time

METAR text: PAFA 150953Z 05006KT 10SM CLR M20/M24 A3010 RMK AO2 SLP207 T12001239 PNO
Conditions at: PAFA (FAIRBANKS , AK, US) observed 0953 UTC 15 February 2019
Temperature: -20.0°C (-4°F)
Dewpoint: -23.9°C (-11°F) [RH = 71%]
Pressure (altimeter): 30.10 inches Hg (1019.4 mb)
[Sea-level pressure: 1020.7 mb]
Winds: from the NE (50 degrees) at 7 MPH (6 knots; 3.1 m/s)
Visibility: 10 or more miles (16+ km)
Ceiling: at least 12,000 feet AGL
Clouds: sky clear below 12,000 feet AGL
Weather: no significant weather observed at this time

METAR text: PAFA 150853Z 03004KT 10SM CLR M23/M26 A3008 RMK AO2 SLP203 T12331261 411501256 56011 PNO
Conditions at: PAFA (FAIRBANKS , AK, US) observed 0853 UTC 15 February 2019
Temperature: -23.3°C (-10°F)
Dewpoint: -26.1°C (-15°F) [RH = 78%]
Pressure (altimeter): 30.08 inches Hg (1018.7 mb)
[Sea-level pressure: 1020.3 mb]
Winds: from the NNE (30 degrees) at 5 MPH (4 knots; 2.1 m/s)
Visibility: 10 or more miles (16+ km)
Ceiling: at least 12,000 feet AGL
Clouds: sky clear below 12,000 feet AGL
Weather: no significant weather observed at this time

METAR text: PAFA 150753Z 04005KT 10SM CLR M23/M27 A3009 RMK AO2 SLP204 T12331267 PNO
Conditions at: PAFA (FAIRBANKS , AK, US) observed 0753 UTC 15 February 2019
Temperature: -23.3°C (-10°F)
Dewpoint: -26.7°C (-16°F) [RH = 74%]
Pressure (altimeter): 30.09 inches Hg (1019.0 mb)
[Sea-level pressure: 1020.4 mb]
Winds: from the NE (40 degrees) at 6 MPH (5 knots; 2.6 m/s)
Visibility: 10 or more miles (16+ km)
Ceiling: at least 12,000 feet AGL
Clouds: sky clear below 12,000 feet AGL
Weather: no significant weather observed at this time

METAR text: PAFA 150653Z 03007KT 10SM CLR M25/M27 A3009 RMK AO2 SLP207 T12501272 PNO
Conditions at: PAFA (FAIRBANKS , AK, US) observed 0653 UTC 15 February 2019
Temperature: -25.0°C (-13°F)
Dewpoint: -27.2°C (-17°F) [RH = 82%]
Pressure (altimeter): 30.09 inches Hg (1019.0 mb)
[Sea-level pressure: 1020.7 mb]
Winds: from the NNE (30 degrees) at 8 MPH (7 knots; 3.6 m/s)
Visibility: 10 or more miles (16+ km)
Ceiling: at least 12,000 feet AGL
Clouds: sky clear below 12,000 feet AGL
Weather: no significant weather observed at this time

METAR text: PAFA 150553Z 02006KT 10SM CLR M23/M26 A3012 RMK AO2 SLP214 T12331261 11150 21256 58019 PNO
Conditions at: PAFA (FAIRBANKS , AK, US) observed 0553 UTC 15 February 2019
Temperature: -23.3°C (-10°F)
Dewpoint: -26.1°C (-15°F) [RH = 78%]
Pressure (altimeter): 30.12 inches Hg (1020.1 mb)
[Sea-level pressure: 1021.4 mb]
Winds: from the NNE (20 degrees) at 7 MPH (6 knots; 3.1 m/s)
Visibility: 10 or more miles (16+ km)
Ceiling: at least 12,000 feet AGL
Clouds: sky clear below 12,000 feet AGL
Weather: no significant weather observed at this time

METAR text: PAFA 150453Z 02006KT 10SM CLR M23/M26 A3014 RMK AO2 SLP221 T12331261 PNO
Conditions at: PAFA (FAIRBANKS , AK, US) observed 0453 UTC 15 February 2019
Temperature: -23.3°C (-10°F)
Dewpoint: -26.1°C (-15°F) [RH = 78%]
Pressure (altimeter): 30.14 inches Hg (1020.7 mb)
[Sea-level pressure: 1022.1 mb]
Winds: from the NNE (20 degrees) at 7 MPH (6 knots; 3.1 m/s)
Visibility: 10 or more miles (16+ km)
Ceiling: at least 12,000 feet AGL
Clouds: sky clear below 12,000 feet AGL
Weather: no significant weather observed at this time

METAR text: PAFA 150353Z 00000KT 10SM CLR M20/M22 A3016 RMK AO2 SLP228 T12001222 PNO
Conditions at: PAFA (FAIRBANKS , AK, US) observed 0353 UTC 15 February 2019
Temperature: -20.0°C (-4°F)
Dewpoint: -22.2°C (-8°F) [RH = 83%]
Pressure (altimeter): 30.16 inches Hg (1021.4 mb)
[Sea-level pressure: 1022.8 mb]
Winds: calm
Visibility: 10 or more miles (16+ km)
Ceiling: at least 12,000 feet AGL
Clouds: sky clear below 12,000 feet AGL
Weather: no significant weather observed at this time

METAR text: PAFA 150253Z 03003KT 10SM CLR M21/M23 A3017 RMK AO2 SLP233 T12111228 57016 PNO
Conditions at: PAFA (FAIRBANKS , AK, US) observed 0253 UTC 15 February 2019
Temperature: -21.1°C (-6°F)
Dewpoint: -22.8°C (-9°F) [RH = 86%]
Pressure (altimeter): 30.17 inches Hg (1021.8 mb)
[Sea-level pressure: 1023.3 mb]
Winds: from the NNE (30 degrees) at 3 MPH (3 knots; 1.5 m/s)
Visibility: 10 or more miles (16+ km)
Ceiling: at least 12,000 feet AGL
Clouds: sky clear below 12,000 feet AGL
Weather: no significant weather observed at this time

METAR text: PAFA 150153Z 00000KT 10SM CLR M17/M21 A3019 RMK AO2 SLP239 T11721206 PNO
Conditions at: PAFA (FAIRBANKS , AK, US) observed 0153 UTC 15 February 2019
Temperature: -17.2°C ( 1°F)
Dewpoint: -20.6°C (-5°F) [RH = 75%]
Pressure (altimeter): 30.19 inches Hg (1022.4 mb)
[Sea-level pressure: 1023.9 mb]
Winds: calm
Visibility: 10 or more miles (16+ km)
Ceiling: at least 12,000 feet AGL
Clouds: sky clear below 12,000 feet AGL
Weather: no significant weather observed at this time

METAR text: PAFA 150053Z 04003KT 10SM CLR M18/M21 A3020 RMK AO2 SLP242 T11781206 PNO
Conditions at: PAFA (FAIRBANKS , AK, US) observed 0053 UTC 15 February 2019
Temperature: -17.8°C (-0°F)
Dewpoint: -20.6°C (-5°F) [RH = 79%]
Pressure (altimeter): 30.20 inches Hg (1022.8 mb)
[Sea-level pressure: 1024.2 mb]
Winds: from the NE (40 degrees) at 3 MPH (3 knots; 1.5 m/s)
Visibility: 10 or more miles (16+ km)
Ceiling: at least 12,000 feet AGL
Clouds: sky clear below 12,000 feet AGL
Weather: no significant weather observed at this time

METAR text: PAFA 142353Z 04003KT 10SM FEW045 M16/M21 A3022 RMK AO2 SLP249 T11611211 11150 21172 58025 PNO
Conditions at: PAFA (FAIRBANKS , AK, US) observed 2353 UTC 14 February 2019
Temperature: -16.1°C ( 3°F)
Dewpoint: -21.1°C (-6°F) [RH = 65%]
Pressure (altimeter): 30.22 inches Hg (1023.5 mb)
[Sea-level pressure: 1024.9 mb]
Winds: from the NE (40 degrees) at 3 MPH (3 knots; 1.5 m/s)
Visibility: 10 or more miles (16+ km)
Ceiling: at least 12,000 feet AGL
Clouds: few clouds at 4500 feet AGL
Weather: no significant weather observed at this time

METAR text: PAFA 142253Z 03005KT 10SM SCT045 SCT090 M17/M21 A3025 RMK AO2 SLP258 T11671206 PNO
Conditions at: PAFA (FAIRBANKS , AK, US) observed 2253 UTC 14 February 2019
Temperature: -16.7°C ( 2°F)
Dewpoint: -20.6°C (-5°F) [RH = 72%]
Pressure (altimeter): 30.25 inches Hg (1024.5 mb)
[Sea-level pressure: 1025.8 mb]
Winds: from the NNE (30 degrees) at 6 MPH (5 knots; 2.6 m/s)
Visibility: 10 or more miles (16+ km)
Ceiling: at least 12,000 feet AGL
Clouds: scattered clouds at 4500 feet AGL
scattered clouds at 9000 feet AGL
Weather: no significant weather observed at this time

METAR text: PAFA 142153Z 04005KT 10SM BKN045 BKN090 M16/M19 A3028 RMK AO2 SNE37 SLP267 T11561194 PNO
Conditions at: PAFA (FAIRBANKS , AK, US) observed 2153 UTC 14 February 2019
Temperature: -15.6°C ( 4°F)
Dewpoint: -19.4°C (-3°F) [RH = 73%]
Pressure (altimeter): 30.28 inches Hg (1025.5 mb)
[Sea-level pressure: 1026.7 mb]
Winds: from the NE (40 degrees) at 6 MPH (5 knots; 2.6 m/s)
Visibility: 10 or more miles (16+ km)
Ceiling: 4500 feet AGL
Clouds: broken clouds at 4500 feet AGL
broken clouds at 9000 feet AGL
Weather: no significant weather observed at this time

METAR text: PAFA 142053Z 03005KT 10SM -SN BKN045 M16/M20 A3030 RMK AO2 SLP274 T11611200 58011 PNO
Conditions at: PAFA (FAIRBANKS , AK, US) observed 2053 UTC 14 February 2019
Temperature: -16.1°C ( 3°F)
Dewpoint: -20.0°C (-4°F) [RH = 72%]
Pressure (altimeter): 30.30 inches Hg (1026.2 mb)
[Sea-level pressure: 1027.4 mb]
Winds: from the NNE (30 degrees) at 6 MPH (5 knots; 2.6 m/s)
Visibility: 10 or more miles (16+ km)
Ceiling: 4500 feet AGL
Clouds: broken clouds at 4500 feet AGL
Weather: -SN  (light snow)

METAR text: PAFA 141953Z 03003KT 10SM -SN OVC045 M17/M20 A3031 RMK AO2 SLP279 T11671200 PNO
Conditions at: PAFA (FAIRBANKS , AK, US) observed 1953 UTC 14 February 2019
Temperature: -16.7°C ( 2°F)
Dewpoint: -20.0°C (-4°F) [RH = 76%]
Pressure (altimeter): 30.31 inches Hg (1026.5 mb)
[Sea-level pressure: 1027.9 mb]
Winds: from the NNE (30 degrees) at 3 MPH (3 knots; 1.5 m/s)
Visibility: 10 or more miles (16+ km)
Ceiling: 4500 feet AGL
Clouds: overcast cloud deck at 4500 feet AGL
Weather: -SN  (light snow)

METAR text: PAFA 141853Z 02003KT 10SM -SN OVC045 M17/M20 A3032 RMK AO2 SLP284 T11671200 PNO
Conditions at: PAFA (FAIRBANKS , AK, US) observed 1853 UTC 14 February 2019
Temperature: -16.7°C ( 2°F)
Dewpoint: -20.0°C (-4°F) [RH = 76%]
Pressure (altimeter): 30.32 inches Hg (1026.8 mb)
[Sea-level pressure: 1028.4 mb]
Winds: from the NNE (20 degrees) at 3 MPH (3 knots; 1.5 m/s)
Visibility: 10 or more miles (16+ km)
Ceiling: 4500 feet AGL
Clouds: overcast cloud deck at 4500 feet AGL
Weather: -SN  (light snow)

METAR text: PAFA 141753Z 03003KT 10SM -SN OVC045 M17/M20 A3033 RMK AO2 SLP286 T11721200 11167 21172 58001 PNO
Conditions at: PAFA (FAIRBANKS , AK, US) observed 1753 UTC 14 February 2019
Temperature: -17.2°C ( 1°F)
Dewpoint: -20.0°C (-4°F) [RH = 79%]
Pressure (altimeter): 30.33 inches Hg (1027.2 mb)
[Sea-level pressure: 1028.6 mb]
Winds: from the NNE (30 degrees) at 3 MPH (3 knots; 1.5 m/s)
Visibility: 10 or more miles (16+ km)
Ceiling: 4500 feet AGL
Clouds: overcast cloud deck at 4500 feet AGL
Weather: -SN  (light snow)

METAR text: PAFA 141653Z 00000KT 9SM -SN OVC045 M17/M20 A3033 RMK AO2 SLP287 T11721200 PNO
Conditions at: PAFA (FAIRBANKS , AK, US) observed 1653 UTC 14 February 2019
Temperature: -17.2°C ( 1°F)
Dewpoint: -20.0°C (-4°F) [RH = 79%]
Pressure (altimeter): 30.33 inches Hg (1027.2 mb)
[Sea-level pressure: 1028.7 mb]
Winds: calm
Visibility: 9 miles (14 km)
Ceiling: 4500 feet AGL
Clouds: overcast cloud deck at 4500 feet AGL
Weather: -SN  (light snow)

METAR text: PAFA 141553Z 05003KT 9SM -SN BKN045 M17/M20 A3034 RMK AO2 SLP289 T11671200 PNO
Conditions at: PAFA (FAIRBANKS , AK, US) observed 1553 UTC 14 February 2019
Temperature: -16.7°C ( 2°F)
Dewpoint: -20.0°C (-4°F) [RH = 76%]
Pressure (altimeter): 30.34 inches Hg (1027.5 mb)
[Sea-level pressure: 1028.9 mb]
Winds: from the NE (50 degrees) at 3 MPH (3 knots; 1.5 m/s)
Visibility: 9 miles (14 km)
Ceiling: 4500 feet AGL
Clouds: broken clouds at 4500 feet AGL
Weather: -SN  (light snow)

METAR text: PAFA 141453Z 05005KT 9SM -SN BKN045 M17/M21 A3033 RMK AO2 SLP285 T11721206 51009 PNO
Conditions at: PAFA (FAIRBANKS , AK, US) observed 1453 UTC 14 February 2019
Temperature: -17.2°C ( 1°F)
Dewpoint: -20.6°C (-5°F) [RH = 75%]
Pressure (altimeter): 30.33 inches Hg (1027.2 mb)
[Sea-level pressure: 1028.5 mb]
Winds: from the NE (50 degrees) at 6 MPH (5 knots; 2.6 m/s)
Visibility: 9 miles (14 km)
Ceiling: 4500 feet AGL
Clouds: broken clouds at 4500 feet AGL
Weather: -SN  (light snow)

METAR text: PAFA 141353Z 00000KT 9SM -SN SCT030 BKN050 M17/M20 A3033 RMK AO2 SLP284 T11671200 PNO
Conditions at: PAFA (FAIRBANKS , AK, US) observed 1353 UTC 14 February 2019
Temperature: -16.7°C ( 2°F)
Dewpoint: -20.0°C (-4°F) [RH = 76%]
Pressure (altimeter): 30.33 inches Hg (1027.2 mb)
[Sea-level pressure: 1028.4 mb]
Winds: calm
Visibility: 9 miles (14 km)
Ceiling: 5000 feet AGL
Clouds: scattered clouds at 3000 feet AGL
broken clouds at 5000 feet AGL
Weather: -SN  (light snow)

METAR text: PAFA 141253Z 06004KT 9SM -SN SCT030 BKN050 M17/M20 A3032 RMK AO2 SLP281 T11721200 PNO
Conditions at: PAFA (FAIRBANKS , AK, US) observed 1253 UTC 14 February 2019
Temperature: -17.2°C ( 1°F)
Dewpoint: -20.0°C (-4°F) [RH = 79%]
Pressure (altimeter): 30.32 inches Hg (1026.8 mb)
[Sea-level pressure: 1028.1 mb]
Winds: from the ENE (60 degrees) at 5 MPH (4 knots; 2.1 m/s)
Visibility: 9 miles (14 km)
Ceiling: 5000 feet AGL
Clouds: scattered clouds at 3000 feet AGL
broken clouds at 5000 feet AGL
Weather: -SN  (light snow)

METAR text: PAFA 141153Z 00000KT 9SM -SN BKN030 BKN045 M17/M20 A3030 RMK AO2 SLP276 T11721200 11150 21183 51018 PNO
Conditions at: PAFA (FAIRBANKS , AK, US) observed 1153 UTC 14 February 2019
Temperature: -17.2°C ( 1°F)
Dewpoint: -20.0°C (-4°F) [RH = 79%]
Pressure (altimeter): 30.30 inches Hg (1026.2 mb)
[Sea-level pressure: 1027.6 mb]
Winds: calm
Visibility: 9 miles (14 km)
Ceiling: 3000 feet AGL
Clouds: broken clouds at 3000 feet AGL
broken clouds at 4500 feet AGL
Weather: -SN  (light snow)

Forecast for: PAFA (FAIRBANKS , AK, US)
Text: PAFA 152323Z 1600/1706 10003KT P6SM FEW250
Forecast period: 0000 to 2100 UTC 16 February 2019
Forecast type: FROM: standard forecast or significant change
Winds: from the E (100 degrees) at 3 MPH (3 knots; 1.5 m/s)
Visibility: 6 or more miles 10+ km)
Ceiling: at least 12,000 feet AGL
Clouds: few clouds at 25000 feet AGL
Weather: no significant weather forecast for this period
Text: FM162100 00000KT P6SM OVC050
Forecast period: 2100 UTC 16 February 2019 to 0000 UTC 17 February 2019
Forecast type: FROM: standard forecast or significant change
Winds: calm
Visibility: 6 or more miles 10+ km)
Ceiling: 5000 feet AGL
Clouds: overcast cloud deck at 5000 feet AGL
Weather: no significant weather forecast for this period
Text: FM170000 00000KT 6SM -SN BKN025 OVC050
Forecast period: 0000 to 0600 UTC 17 February 2019
Forecast type: FROM: standard forecast or significant change
Winds: calm
Visibility: 6 miles (10 km)
Ceiling: 2500 feet AGL
Clouds: broken clouds at 2500 feet AGL
overcast cloud deck at 5000 feet AGL
Weather: -SN  (light snow)